Terminal Aerodrome Forecast
Issued by NWS Albuquerque, NM

Home | Current Version | Previous Version | Text Only | Print | Product List | Glossary On
Versions: 1 2 3 4 5 6 7 8 9 10 11 12 13 14 15 16 17
000
FTUS45 KABQ 161100
TAFABQ
TAF
KABQ 161124Z 1612/1712 VRB04KT P6SM SKC
     FM161700 24007KT P6SM SCT250
     FM162000 30011G17KT P6SM FEW150 BKN250
     FM170000 34015G25KT P6SM BKN100
     FM170500 36010KT P6SM FEW250=

USA.gov is the U.S. government's official web portal to all federal, state and local government web resources and services.